sensor_id;sensor_type;location;lat;lon;timestamp;P1;durP1;ratioP1;P2;durP2;ratioP2
41661;SDS011;27351;45.992;12.666;2023-04-15T00:00:35;3.95;;;2.20;;
41661;SDS011;27351;45.992;12.666;2023-04-15T00:03:01;2.60;;;1.95;;
41661;SDS011;27351;45.992;12.666;2023-04-15T00:05:30;4.20;;;2.20;;
41661;SDS011;27351;45.992;12.666;2023-04-15T00:07:56;3.50;;;2.00;;
41661;SDS011;27351;45.992;12.666;2023-04-15T00:10:21;3.08;;;1.95;;
41661;SDS011;27351;45.992;12.666;2023-04-15T00:12:47;2.67;;;1.80;;
41661;SDS011;27351;45.992;12.666;2023-04-15T00:15:12;3.90;;;1.90;;
41661;SDS011;27351;45.992;12.666;2023-04-15T00:17:37;3.83;;;2.20;;
41661;SDS011;27351;45.992;12.666;2023-04-15T00:20:04;3.25;;;1.90;;
41661;SDS011;27351;45.992;12.666;2023-04-15T00:22:30;4.05;;;1.90;;
41661;SDS011;27351;45.992;12.666;2023-04-15T00:24:56;5.18;;;2.20;;
41661;SDS011;27351;45.992;12.666;2023-04-15T00:27:22;3.50;;;2.00;;
41661;SDS011;27351;45.992;12.666;2023-04-15T00:29:48;3.97;;;2.30;;
41661;SDS011;27351;45.992;12.666;2023-04-15T00:32:13;4.37;;;1.80;;
41661;SDS011;27351;45.992;12.666;2023-04-15T00:34:39;3.38;;;2.00;;
41661;SDS011;27351;45.992;12.666;2023-04-15T00:37:06;3.33;;;2.03;;
41661;SDS011;27351;45.992;12.666;2023-04-15T00:39:31;5.27;;;2.30;;
41661;SDS011;27351;45.992;12.666;2023-04-15T00:41:57;3.17;;;2.13;;
41661;SDS011;27351;45.992;12.666;2023-04-15T00:44:22;5.97;;;2.20;;
41661;SDS011;27351;45.992;12.666;2023-04-15T00:46:50;3.55;;;2.03;;
41661;SDS011;27351;45.992;12.666;2023-04-15T00:49:16;3.80;;;2.20;;
41661;SDS011;27351;45.992;12.666;2023-04-15T00:51:42;3.53;;;2.10;;
41661;SDS011;27351;45.992;12.666;2023-04-15T00:54:08;4.10;;;2.20;;
41661;SDS011;27351;45.992;12.666;2023-04-15T00:56:37;4.70;;;2.33;;
41661;SDS011;27351;45.992;12.666;2023-04-15T00:59:03;4.40;;;2.50;;
41661;SDS011;27351;45.992;12.666;2023-04-15T01:01:30;3.33;;;2.13;;
41661;SDS011;27351;45.992;12.666;2023-04-15T01:03:57;3.75;;;2.28;;
41661;SDS011;27351;45.992;12.666;2023-04-15T01:06:23;3.50;;;2.10;;
41661;SDS011;27351;45.992;12.666;2023-04-15T01:08:48;4.83;;;2.90;;
41661;SDS011;27351;45.992;12.666;2023-04-15T01:11:14;5.50;;;2.90;;
41661;SDS011;27351;45.992;12.666;2023-04-15T01:13:40;4.17;;;2.50;;
41661;SDS011;27351;45.992;12.666;2023-04-15T01:16:06;5.40;;;3.55;;
41661;SDS011;27351;45.992;12.666;2023-04-15T01:18:33;7.05;;;3.50;;
41661;SDS011;27351;45.992;12.666;2023-04-15T01:21:00;6.32;;;3.03;;
41661;SDS011;27351;45.992;12.666;2023-04-15T01:23:26;5.60;;;3.28;;
41661;SDS011;27351;45.992;12.666;2023-04-15T01:25:53;5.85;;;3.88;;
41661;SDS011;27351;45.992;12.666;2023-04-15T01:28:19;6.73;;;3.93;;
41661;SDS011;27351;45.992;12.666;2023-04-15T01:30:45;5.72;;;4.03;;
41661;SDS011;27351;45.992;12.666;2023-04-15T01:33:13;6.38;;;3.90;;
41661;SDS011;27351;45.992;12.666;2023-04-15T01:35:39;6.37;;;4.00;;
41661;SDS011;27351;45.992;12.666;2023-04-15T01:38:08;6.95;;;4.25;;
41661;SDS011;27351;45.992;12.666;2023-04-15T01:40:36;7.63;;;5.00;;
41661;SDS011;27351;45.992;12.666;2023-04-15T01:43:01;8.57;;;5.63;;
41661;SDS011;27351;45.992;12.666;2023-04-15T01:45:28;9.57;;;6.25;;
41661;SDS011;27351;45.992;12.666;2023-04-15T01:50:22;10.30;;;6.80;;
41661;SDS011;27351;45.992;12.666;2023-04-15T01:52:48;10.57;;;7.60;;
41661;SDS011;27351;45.992;12.666;2023-04-15T01:55:13;9.80;;;7.13;;
41661;SDS011;27351;45.992;12.666;2023-04-15T01:57:39;10.17;;;7.80;;
41661;SDS011;27351;45.992;12.666;2023-04-15T02:00:05;9.45;;;7.05;;
41661;SDS011;27351;45.992;12.666;2023-04-15T02:02:38;9.65;;;6.70;;
41661;SDS011;27351;45.992;12.666;2023-04-15T02:05:04;10.10;;;7.77;;
41661;SDS011;27351;45.992;12.666;2023-04-15T02:07:30;10.20;;;7.67;;
41661;SDS011;27351;45.992;12.666;2023-04-15T02:09:56;11.23;;;7.38;;
41661;SDS011;27351;45.992;12.666;2023-04-15T02:12:22;11.00;;;7.88;;
41661;SDS011;27351;45.992;12.666;2023-04-15T02:14:48;11.23;;;8.30;;
41661;SDS011;27351;45.992;12.666;2023-04-15T02:17:14;11.65;;;9.00;;
41661;SDS011;27351;45.992;12.666;2023-04-15T02:19:42;12.27;;;9.40;;
41661;SDS011;27351;45.992;12.666;2023-04-15T02:22:07;13.57;;;10.27;;
41661;SDS011;27351;45.992;12.666;2023-04-15T02:24:33;15.00;;;10.85;;
41661;SDS011;27351;45.992;12.666;2023-04-15T02:26:59;15.40;;;10.85;;
41661;SDS011;27351;45.992;12.666;2023-04-15T02:29:26;14.98;;;11.88;;
41661;SDS011;27351;45.992;12.666;2023-04-15T02:31:51;15.60;;;12.30;;
41661;SDS011;27351;45.992;12.666;2023-04-15T02:34:18;15.30;;;12.40;;
41661;SDS011;27351;45.992;12.666;2023-04-15T02:36:44;16.30;;;12.68;;
41661;SDS011;27351;45.992;12.666;2023-04-15T02:39:13;15.48;;;12.35;;
41661;SDS011;27351;45.992;12.666;2023-04-15T02:41:41;16.27;;;12.63;;
41661;SDS011;27351;45.992;12.666;2023-04-15T02:44:10;17.52;;;12.68;;
41661;SDS011;27351;45.992;12.666;2023-04-15T02:46:37;14.55;;;11.57;;
41661;SDS011;27351;45.992;12.666;2023-04-15T02:49:03;14.13;;;10.80;;
41661;SDS011;27351;45.992;12.666;2023-04-15T02:51:29;15.33;;;11.30;;
41661;SDS011;27351;45.992;12.666;2023-04-15T02:53:56;15.48;;;11.40;;
41661;SDS011;27351;45.992;12.666;2023-04-15T02:56:22;15.98;;;11.85;;
41661;SDS011;27351;45.992;12.666;2023-04-15T02:58:48;15.27;;;11.73;;
41661;SDS011;27351;45.992;12.666;2023-04-15T03:01:15;15.70;;;11.63;;
41661;SDS011;27351;45.992;12.666;2023-04-15T03:03:41;14.60;;;11.43;;
41661;SDS011;27351;45.992;12.666;2023-04-15T03:06:06;16.60;;;12.53;;
41661;SDS011;27351;45.992;12.666;2023-04-15T03:08:33;15.70;;;11.82;;
41661;SDS011;27351;45.992;12.666;2023-04-15T03:10:59;16.60;;;12.17;;
41661;SDS011;27351;45.992;12.666;2023-04-15T03:13:27;15.98;;;12.05;;
41661;SDS011;27351;45.992;12.666;2023-04-15T03:15:54;15.30;;;11.57;;
41661;SDS011;27351;45.992;12.666;2023-04-15T03:18:21;14.82;;;11.18;;
41661;SDS011;27351;45.992;12.666;2023-04-15T03:20:47;14.95;;;10.98;;
41661;SDS011;27351;45.992;12.666;2023-04-15T03:23:13;16.23;;;11.20;;
41661;SDS011;27351;45.992;12.666;2023-04-15T03:25:39;14.33;;;11.33;;
41661;SDS011;27351;45.992;12.666;2023-04-15T03:28:06;15.90;;;11.50;;
41661;SDS011;27351;45.992;12.666;2023-04-15T03:30:32;15.05;;;11.10;;
41661;SDS011;27351;45.992;12.666;2023-04-15T03:32:58;13.73;;;10.55;;
41661;SDS011;27351;45.992;12.666;2023-04-15T03:35:24;14.75;;;10.70;;
41661;SDS011;27351;45.992;12.666;2023-04-15T03:37:50;14.85;;;10.48;;
41661;SDS011;27351;45.992;12.666;2023-04-15T03:40:15;14.02;;;10.02;;
41661;SDS011;27351;45.992;12.666;2023-04-15T03:42:41;13.95;;;10.00;;
41661;SDS011;27351;45.992;12.666;2023-04-15T03:45:07;13.67;;;10.07;;
41661;SDS011;27351;45.992;12.666;2023-04-15T03:47:32;15.70;;;11.07;;
41661;SDS011;27351;45.992;12.666;2023-04-15T03:49:58;13.60;;;10.70;;
41661;SDS011;27351;45.992;12.666;2023-04-15T03:52:24;13.68;;;9.70;;
41661;SDS011;27351;45.992;12.666;2023-04-15T03:54:49;13.37;;;9.90;;
41661;SDS011;27351;45.992;12.666;2023-04-15T03:57:15;13.88;;;10.32;;
41661;SDS011;27351;45.992;12.666;2023-04-15T03:59:41;12.73;;;9.03;;
41661;SDS011;27351;45.992;12.666;2023-04-15T04:02:06;15.45;;;9.40;;
41661;SDS011;27351;45.992;12.666;2023-04-15T04:04:32;12.57;;;9.20;;
41661;SDS011;27351;45.992;12.666;2023-04-15T04:06:57;15.60;;;10.23;;
41661;SDS011;27351;45.992;12.666;2023-04-15T04:09:23;13.27;;;9.60;;
41661;SDS011;27351;45.992;12.666;2023-04-15T04:11:49;12.90;;;9.57;;
41661;SDS011;27351;45.992;12.666;2023-04-15T04:14:14;13.53;;;9.90;;
41661;SDS011;27351;45.992;12.666;2023-04-15T04:16:40;12.40;;;9.50;;
41661;SDS011;27351;45.992;12.666;2023-04-15T04:19:05;13.70;;;9.57;;
41661;SDS011;27351;45.992;12.666;2023-04-15T04:21:31;13.43;;;9.40;;
41661;SDS011;27351;45.992;12.666;2023-04-15T04:23:58;12.82;;;9.18;;
41661;SDS011;27351;45.992;12.666;2023-04-15T04:26:24;14.65;;;9.02;;
41661;SDS011;27351;45.992;12.666;2023-04-15T04:28:49;11.38;;;8.40;;
41661;SDS011;27351;45.992;12.666;2023-04-15T04:31:15;14.27;;;9.60;;
41661;SDS011;27351;45.992;12.666;2023-04-15T04:33:41;12.47;;;8.97;;
41661;SDS011;27351;45.992;12.666;2023-04-15T04:36:06;14.13;;;9.60;;
41661;SDS011;27351;45.992;12.666;2023-04-15T04:38:32;13.40;;;9.67;;
41661;SDS011;27351;45.992;12.666;2023-04-15T04:40:57;14.37;;;9.77;;
41661;SDS011;27351;45.992;12.666;2023-04-15T04:43:23;17.03;;;9.27;;
41661;SDS011;27351;45.992;12.666;2023-04-15T04:45:49;13.40;;;9.50;;
41661;SDS011;27351;45.992;12.666;2023-04-15T04:48:14;13.63;;;8.53;;
41661;SDS011;27351;45.992;12.666;2023-04-15T04:50:41;12.80;;;9.07;;
41661;SDS011;27351;45.992;12.666;2023-04-15T04:53:07;14.53;;;9.33;;
41661;SDS011;27351;45.992;12.666;2023-04-15T04:55:32;13.33;;;10.00;;
41661;SDS011;27351;45.992;12.666;2023-04-15T04:58:01;13.43;;;9.35;;
41661;SDS011;27351;45.992;12.666;2023-04-15T05:00:27;14.18;;;9.48;;
41661;SDS011;27351;45.992;12.666;2023-04-15T05:02:53;12.18;;;8.85;;
41661;SDS011;27351;45.992;12.666;2023-04-15T05:05:19;14.90;;;9.10;;
41661;SDS011;27351;45.992;12.666;2023-04-15T05:07:44;13.70;;;9.03;;
41661;SDS011;27351;45.992;12.666;2023-04-15T05:10:10;13.90;;;8.93;;
41661;SDS011;27351;45.992;12.666;2023-04-15T05:12:36;13.80;;;9.70;;
41661;SDS011;27351;45.992;12.666;2023-04-15T05:15:03;13.63;;;9.32;;
41661;SDS011;27351;45.992;12.666;2023-04-15T05:17:28;15.65;;;9.55;;
41661;SDS011;27351;45.992;12.666;2023-04-15T05:19:57;16.58;;;9.93;;
41661;SDS011;27351;45.992;12.666;2023-04-15T05:22:23;12.67;;;8.87;;
41661;SDS011;27351;45.992;12.666;2023-04-15T05:24:48;12.67;;;8.70;;
41661;SDS011;27351;45.992;12.666;2023-04-15T05:27:14;13.70;;;8.67;;
41661;SDS011;27351;45.992;12.666;2023-04-15T05:29:39;13.33;;;8.27;;
41661;SDS011;27351;45.992;12.666;2023-04-15T05:32:05;11.63;;;8.37;;
41661;SDS011;27351;45.992;12.666;2023-04-15T05:34:31;11.57;;;7.80;;
41661;SDS011;27351;45.992;12.666;2023-04-15T05:36:56;12.60;;;7.57;;
41661;SDS011;27351;45.992;12.666;2023-04-15T05:39:22;11.80;;;7.70;;
41661;SDS011;27351;45.992;12.666;2023-04-15T05:41:47;13.43;;;7.40;;
41661;SDS011;27351;45.992;12.666;2023-04-15T05:44:13;10.83;;;7.27;;
41661;SDS011;27351;45.992;12.666;2023-04-15T05:46:39;9.73;;;7.37;;
41661;SDS011;27351;45.992;12.666;2023-04-15T05:49:04;11.63;;;7.50;;
41661;SDS011;27351;45.992;12.666;2023-04-15T05:51:30;12.60;;;7.13;;
41661;SDS011;27351;45.992;12.666;2023-04-15T05:53:55;10.50;;;6.70;;
41661;SDS011;27351;45.992;12.666;2023-04-15T05:56:21;10.80;;;7.10;;
41661;SDS011;27351;45.992;12.666;2023-04-15T05:58:46;10.53;;;6.20;;
41661;SDS011;27351;45.992;12.666;2023-04-15T06:01:12;10.50;;;6.10;;
41661;SDS011;27351;45.992;12.666;2023-04-15T06:03:38;11.60;;;6.13;;
41661;SDS011;27351;45.992;12.666;2023-04-15T06:06:03;9.38;;;5.28;;
41661;SDS011;27351;45.992;12.666;2023-04-15T06:08:29;9.33;;;5.40;;
41661;SDS011;27351;45.992;12.666;2023-04-15T06:10:54;8.90;;;5.35;;
41661;SDS011;27351;45.992;12.666;2023-04-15T06:13:20;8.82;;;5.40;;
41661;SDS011;27351;45.992;12.666;2023-04-15T06:15:46;8.98;;;5.28;;
41661;SDS011;27351;45.992;12.666;2023-04-15T06:18:11;7.97;;;5.25;;
41661;SDS011;27351;45.992;12.666;2023-04-15T06:20:37;9.07;;;5.18;;
41661;SDS011;27351;45.992;12.666;2023-04-15T06:23:03;9.30;;;5.17;;
41661;SDS011;27351;45.992;12.666;2023-04-15T06:25:28;8.00;;;5.28;;
41661;SDS011;27351;45.992;12.666;2023-04-15T06:27:53;8.65;;;5.28;;
41661;SDS011;27351;45.992;12.666;2023-04-15T06:30:19;8.95;;;5.38;;
41661;SDS011;27351;45.992;12.666;2023-04-15T06:32:45;8.45;;;4.80;;
41661;SDS011;27351;45.992;12.666;2023-04-15T06:35:11;8.38;;;4.47;;
41661;SDS011;27351;45.992;12.666;2023-04-15T06:37:37;7.40;;;3.88;;
41661;SDS011;27351;45.992;12.666;2023-04-15T06:40:03;7.53;;;3.83;;
41661;SDS011;27351;45.992;12.666;2023-04-15T06:42:29;7.40;;;3.90;;
41661;SDS011;27351;45.992;12.666;2023-04-15T06:44:55;7.32;;;3.80;;
41661;SDS011;27351;45.992;12.666;2023-04-15T06:47:20;6.40;;;3.72;;
41661;SDS011;27351;45.992;12.666;2023-04-15T06:49:46;8.88;;;4.68;;
41661;SDS011;27351;45.992;12.666;2023-04-15T06:52:12;8.75;;;5.00;;
41661;SDS011;27351;45.992;12.666;2023-04-15T06:54:37;9.27;;;5.20;;
41661;SDS011;27351;45.992;12.666;2023-04-15T06:57:03;7.50;;;5.00;;
41661;SDS011;27351;45.992;12.666;2023-04-15T06:59:28;7.13;;;4.60;;
41661;SDS011;27351;45.992;12.666;2023-04-15T07:01:54;7.93;;;4.77;;
41661;SDS011;27351;45.992;12.666;2023-04-15T07:04:19;9.67;;;5.07;;
41661;SDS011;27351;45.992;12.666;2023-04-15T07:06:45;8.37;;;4.47;;
41661;SDS011;27351;45.992;12.666;2023-04-15T07:09:11;7.50;;;3.97;;
41661;SDS011;27351;45.992;12.666;2023-04-15T07:11:36;8.37;;;3.90;;
41661;SDS011;27351;45.992;12.666;2023-04-15T07:14:02;7.33;;;3.57;;
41661;SDS011;27351;45.992;12.666;2023-04-15T07:16:28;5.40;;;2.70;;
41661;SDS011;27351;45.992;12.666;2023-04-15T07:18:54;5.60;;;2.72;;
41661;SDS011;27351;45.992;12.666;2023-04-15T07:21:20;4.93;;;2.53;;
41661;SDS011;27351;45.992;12.666;2023-04-15T07:23:45;7.47;;;2.87;;
41661;SDS011;27351;45.992;12.666;2023-04-15T07:26:11;6.47;;;2.67;;
41661;SDS011;27351;45.992;12.666;2023-04-15T07:28:37;7.50;;;3.27;;
41661;SDS011;27351;45.992;12.666;2023-04-15T07:31:02;4.93;;;2.77;;
41661;SDS011;27351;45.992;12.666;2023-04-15T07:33:28;5.82;;;2.10;;
41661;SDS011;27351;45.992;12.666;2023-04-15T07:35:54;4.30;;;1.87;;
41661;SDS011;27351;45.992;12.666;2023-04-15T07:38:20;3.77;;;1.70;;
41661;SDS011;27351;45.992;12.666;2023-04-15T07:40:46;4.57;;;2.07;;
41661;SDS011;27351;45.992;12.666;2023-04-15T07:43:12;4.30;;;1.35;;
41661;SDS011;27351;45.992;12.666;2023-04-15T07:45:38;3.33;;;1.40;;
41661;SDS011;27351;45.992;12.666;2023-04-15T07:48:03;3.88;;;1.40;;
41661;SDS011;27351;45.992;12.666;2023-04-15T07:50:30;4.37;;;1.70;;
41661;SDS011;27351;45.992;12.666;2023-04-15T07:52:55;5.10;;;2.40;;
41661;SDS011;27351;45.992;12.666;2023-04-15T07:55:21;3.58;;;1.40;;
41661;SDS011;27351;45.992;12.666;2023-04-15T07:57:47;3.38;;;1.65;;
41661;SDS011;27351;45.992;12.666;2023-04-15T08:00:13;3.42;;;1.60;;
41661;SDS011;27351;45.992;12.666;2023-04-15T08:02:40;4.55;;;1.40;;
41661;SDS011;27351;45.992;12.666;2023-04-15T08:05:07;3.25;;;1.30;;
41661;SDS011;27351;45.992;12.666;2023-04-15T08:07:33;5.07;;;1.30;;
41661;SDS011;27351;45.992;12.666;2023-04-15T08:09:58;3.57;;;1.20;;
41661;SDS011;27351;45.992;12.666;2023-04-15T08:12:24;5.30;;;1.02;;
41661;SDS011;27351;45.992;12.666;2023-04-15T08:14:50;2.47;;;1.00;;
41661;SDS011;27351;45.992;12.666;2023-04-15T08:17:16;3.30;;;0.80;;
41661;SDS011;27351;45.992;12.666;2023-04-15T08:19:41;2.90;;;0.80;;
41661;SDS011;27351;45.992;12.666;2023-04-15T08:22:07;1.27;;;0.77;;
41661;SDS011;27351;45.992;12.666;2023-04-15T08:24:33;2.00;;;0.80;;
41661;SDS011;27351;45.992;12.666;2023-04-15T08:26:58;1.80;;;0.90;;
41661;SDS011;27351;45.992;12.666;2023-04-15T08:29:24;3.00;;;0.93;;
41661;SDS011;27351;45.992;12.666;2023-04-15T08:31:50;2.95;;;1.00;;
41661;SDS011;27351;45.992;12.666;2023-04-15T08:34:15;7.30;;;2.40;;
41661;SDS011;27351;45.992;12.666;2023-04-15T08:36:42;3.72;;;1.10;;
41661;SDS011;27351;45.992;12.666;2023-04-15T08:39:07;3.20;;;1.03;;
41661;SDS011;27351;45.992;12.666;2023-04-15T08:41:36;3.53;;;1.17;;
41661;SDS011;27351;45.992;12.666;2023-04-15T08:44:04;2.83;;;1.37;;
41661;SDS011;27351;45.992;12.666;2023-04-15T08:46:33;4.05;;;1.38;;
41661;SDS011;27351;45.992;12.666;2023-04-15T08:49:02;3.58;;;1.27;;
41661;SDS011;27351;45.992;12.666;2023-04-15T08:51:28;3.40;;;1.35;;
41661;SDS011;27351;45.992;12.666;2023-04-15T08:53:54;3.90;;;1.95;;
41661;SDS011;27351;45.992;12.666;2023-04-15T08:56:21;4.28;;;1.23;;
41661;SDS011;27351;45.992;12.666;2023-04-15T08:58:48;3.33;;;1.10;;
41661;SDS011;27351;45.992;12.666;2023-04-15T09:01:13;3.80;;;1.40;;
41661;SDS011;27351;45.992;12.666;2023-04-15T09:03:39;2.55;;;1.40;;
41661;SDS011;27351;45.992;12.666;2023-04-15T09:06:05;2.45;;;1.00;;
41661;SDS011;27351;45.992;12.666;2023-04-15T09:08:31;3.83;;;1.23;;
41661;SDS011;27351;45.992;12.666;2023-04-15T09:10:58;4.55;;;1.40;;
41661;SDS011;27351;45.992;12.666;2023-04-15T09:13:24;3.60;;;1.20;;
41661;SDS011;27351;45.992;12.666;2023-04-15T09:15:50;2.73;;;1.27;;
41661;SDS011;27351;45.992;12.666;2023-04-15T09:21:15;3.45;;;1.60;;
41661;SDS011;27351;45.992;12.666;2023-04-15T09:23:41;3.47;;;1.40;;
41661;SDS011;27351;45.992;12.666;2023-04-15T09:26:18;2.70;;;1.30;;
41661;SDS011;27351;45.992;12.666;2023-04-15T09:28:43;5.47;;;2.13;;
41661;SDS011;27351;45.992;12.666;2023-04-15T09:31:09;2.90;;;1.40;;
41661;SDS011;27351;45.992;12.666;2023-04-15T09:33:35;3.83;;;1.50;;
41661;SDS011;27351;45.992;12.666;2023-04-15T09:36:02;2.85;;;1.38;;
41661;SDS011;27351;45.992;12.666;2023-04-15T09:38:31;2.30;;;1.30;;
41661;SDS011;27351;45.992;12.666;2023-04-15T09:40:57;4.00;;;1.30;;
41661;SDS011;27351;45.992;12.666;2023-04-15T09:43:38;3.70;;;1.90;;
41661;SDS011;27351;45.992;12.666;2023-04-15T09:46:04;3.47;;;1.30;;
41661;SDS011;27351;45.992;12.666;2023-04-15T09:48:30;3.90;;;1.50;;
41661;SDS011;27351;45.992;12.666;2023-04-15T09:50:58;3.87;;;1.30;;
41661;SDS011;27351;45.992;12.666;2023-04-15T09:53:24;3.22;;;1.40;;
41661;SDS011;27351;45.992;12.666;2023-04-15T09:55:54;2.90;;;1.40;;
41661;SDS011;27351;45.992;12.666;2023-04-15T09:58:21;3.67;;;1.52;;
41661;SDS011;27351;45.992;12.666;2023-04-15T10:00:48;2.38;;;1.25;;
41661;SDS011;27351;45.992;12.666;2023-04-15T10:03:18;2.97;;;0.95;;
41661;SDS011;27351;45.992;12.666;2023-04-15T10:05:44;3.75;;;1.33;;
41661;SDS011;27351;45.992;12.666;2023-04-15T10:08:12;3.03;;;1.38;;
41661;SDS011;27351;45.992;12.666;2023-04-15T10:10:37;2.80;;;1.60;;
41661;SDS011;27351;45.992;12.666;2023-04-15T10:13:03;2.95;;;1.50;;
41661;SDS011;27351;45.992;12.666;2023-04-15T10:15:30;4.10;;;1.40;;
41661;SDS011;27351;45.992;12.666;2023-04-15T10:17:56;3.45;;;1.60;;
41661;SDS011;27351;45.992;12.666;2023-04-15T10:20:22;4.30;;;1.75;;
41661;SDS011;27351;45.992;12.666;2023-04-15T10:22:48;3.58;;;1.40;;
41661;SDS011;27351;45.992;12.666;2023-04-15T10:25:14;2.72;;;1.38;;
41661;SDS011;27351;45.992;12.666;2023-04-15T10:27:39;4.30;;;1.85;;
41661;SDS011;27351;45.992;12.666;2023-04-15T10:30:08;2.65;;;1.50;;
41661;SDS011;27351;45.992;12.666;2023-04-15T10:32:34;3.15;;;1.30;;
41661;SDS011;27351;45.992;12.666;2023-04-15T10:35:00;2.47;;;1.63;;
41661;SDS011;27351;45.992;12.666;2023-04-15T10:37:37;2.75;;;1.60;;
41661;SDS011;27351;45.992;12.666;2023-04-15T10:42:46;4.35;;;1.30;;
41661;SDS011;27351;45.992;12.666;2023-04-15T10:45:15;2.70;;;1.40;;
41661;SDS011;27351;45.992;12.666;2023-04-15T10:47:41;2.97;;;1.60;;
41661;SDS011;27351;45.992;12.666;2023-04-15T10:50:08;2.75;;;1.38;;
41661;SDS011;27351;45.992;12.666;2023-04-15T10:52:33;2.45;;;1.40;;
41661;SDS011;27351;45.992;12.666;2023-04-15T10:55:11;2.97;;;1.30;;
41661;SDS011;27351;45.992;12.666;2023-04-15T10:57:37;2.00;;;1.08;;
41661;SDS011;27351;45.992;12.666;2023-04-15T11:05:21;4.05;;;1.40;;
41661;SDS011;27351;45.992;12.666;2023-04-15T11:07:48;3.00;;;1.00;;
41661;SDS011;27351;45.992;12.666;2023-04-15T11:12:46;2.17;;;1.10;;
41661;SDS011;27351;45.992;12.666;2023-04-15T11:17:50;4.93;;;1.27;;
41661;SDS011;27351;45.992;12.666;2023-04-15T11:20:15;2.97;;;1.27;;
41661;SDS011;27351;45.992;12.666;2023-04-15T11:22:54;3.00;;;0.90;;
41661;SDS011;27351;45.992;12.666;2023-04-15T11:25:27;2.33;;;0.90;;
41661;SDS011;27351;45.992;12.666;2023-04-15T11:27:53;3.95;;;1.13;;
41661;SDS011;27351;45.992;12.666;2023-04-15T11:30:20;3.15;;;1.23;;
41661;SDS011;27351;45.992;12.666;2023-04-15T11:32:46;4.40;;;1.42;;
41661;SDS011;27351;45.992;12.666;2023-04-15T11:35:12;4.65;;;1.80;;
41661;SDS011;27351;45.992;12.666;2023-04-15T11:37:38;3.17;;;1.52;;
41661;SDS011;27351;45.992;12.666;2023-04-15T11:40:03;3.43;;;1.20;;
41661;SDS011;27351;45.992;12.666;2023-04-15T11:42:30;2.55;;;1.60;;
41661;SDS011;27351;45.992;12.666;2023-04-15T11:47:37;2.75;;;1.27;;
41661;SDS011;27351;45.992;12.666;2023-04-15T11:50:15;3.92;;;1.50;;
41661;SDS011;27351;45.992;12.666;2023-04-15T11:52:54;3.95;;;1.48;;
41661;SDS011;27351;45.992;12.666;2023-04-15T11:55:20;6.03;;;1.75;;
41661;SDS011;27351;45.992;12.666;2023-04-15T11:57:45;4.07;;;1.40;;
41661;SDS011;27351;45.992;12.666;2023-04-15T12:00:11;3.43;;;1.33;;
41661;SDS011;27351;45.992;12.666;2023-04-15T12:02:37;4.70;;;1.50;;
41661;SDS011;27351;45.992;12.666;2023-04-15T12:05:03;4.45;;;1.40;;
41661;SDS011;27351;45.992;12.666;2023-04-15T12:07:29;4.28;;;1.52;;
41661;SDS011;27351;45.992;12.666;2023-04-15T12:09:55;4.43;;;1.60;;
41661;SDS011;27351;45.992;12.666;2023-04-15T12:12:21;3.70;;;1.70;;
41661;SDS011;27351;45.992;12.666;2023-04-15T12:14:50;3.30;;;1.30;;
41661;SDS011;27351;45.992;12.666;2023-04-15T12:17:16;4.57;;;1.42;;
41661;SDS011;27351;45.992;12.666;2023-04-15T12:19:41;3.90;;;1.70;;
41661;SDS011;27351;45.992;12.666;2023-04-15T12:22:13;5.75;;;1.92;;
41661;SDS011;27351;45.992;12.666;2023-04-15T12:24:40;4.90;;;1.60;;
41661;SDS011;27351;45.992;12.666;2023-04-15T12:27:09;4.13;;;1.50;;
41661;SDS011;27351;45.992;12.666;2023-04-15T12:29:35;4.50;;;1.60;;
41661;SDS011;27351;45.992;12.666;2023-04-15T12:34:30;4.72;;;1.80;;
41661;SDS011;27351;45.992;12.666;2023-04-15T12:36:57;4.13;;;1.50;;
41661;SDS011;27351;45.992;12.666;2023-04-15T12:39:23;3.95;;;1.50;;
41661;SDS011;27351;45.992;12.666;2023-04-15T12:41:50;3.58;;;1.40;;
41661;SDS011;27351;45.992;12.666;2023-04-15T12:44:15;4.35;;;1.50;;
41661;SDS011;27351;45.992;12.666;2023-04-15T12:46:41;7.53;;;1.97;;
41661;SDS011;27351;45.992;12.666;2023-04-15T12:49:07;4.27;;;1.63;;
41661;SDS011;27351;45.992;12.666;2023-04-15T12:51:33;4.07;;;1.67;;
41661;SDS011;27351;45.992;12.666;2023-04-15T12:53:59;5.73;;;1.70;;
41661;SDS011;27351;45.992;12.666;2023-04-15T12:56:24;6.00;;;1.90;;
41661;SDS011;27351;45.992;12.666;2023-04-15T12:58:50;5.05;;;1.70;;
41661;SDS011;27351;45.992;12.666;2023-04-15T13:01:16;6.03;;;1.65;;
41661;SDS011;27351;45.992;12.666;2023-04-15T13:03:41;3.55;;;1.65;;
41661;SDS011;27351;45.992;12.666;2023-04-15T13:06:07;5.65;;;1.98;;
41661;SDS011;27351;45.992;12.666;2023-04-15T13:08:32;3.97;;;1.40;;
41661;SDS011;27351;45.992;12.666;2023-04-15T13:10:58;4.10;;;1.60;;
41661;SDS011;27351;45.992;12.666;2023-04-15T13:13:24;5.63;;;1.70;;
41661;SDS011;27351;45.992;12.666;2023-04-15T13:15:49;5.53;;;1.40;;
41661;SDS011;27351;45.992;12.666;2023-04-15T13:18:15;6.53;;;1.70;;
41661;SDS011;27351;45.992;12.666;2023-04-15T13:20:41;2.80;;;1.20;;
41661;SDS011;27351;45.992;12.666;2023-04-15T13:23:06;4.32;;;1.60;;
41661;SDS011;27351;45.992;12.666;2023-04-15T13:25:32;5.15;;;1.67;;
41661;SDS011;27351;45.992;12.666;2023-04-15T13:27:58;4.00;;;1.33;;
41661;SDS011;27351;45.992;12.666;2023-04-15T13:30:23;5.00;;;1.60;;
41661;SDS011;27351;45.992;12.666;2023-04-15T13:32:49;3.60;;;1.30;;
41661;SDS011;27351;45.992;12.666;2023-04-15T13:35:15;4.45;;;1.40;;
41661;SDS011;27351;45.992;12.666;2023-04-15T13:37:40;4.63;;;1.50;;
41661;SDS011;27351;45.992;12.666;2023-04-15T13:40:06;4.17;;;1.10;;
41661;SDS011;27351;45.992;12.666;2023-04-15T13:42:32;4.47;;;1.40;;
41661;SDS011;27351;45.992;12.666;2023-04-15T13:44:57;4.50;;;1.40;;
41661;SDS011;27351;45.992;12.666;2023-04-15T13:47:23;3.15;;;1.40;;
41661;SDS011;27351;45.992;12.666;2023-04-15T13:49:48;3.83;;;1.27;;
41661;SDS011;27351;45.992;12.666;2023-04-15T13:52:14;5.03;;;1.35;;
41661;SDS011;27351;45.992;12.666;2023-04-15T13:54:40;3.97;;;1.30;;
41661;SDS011;27351;45.992;12.666;2023-04-15T13:57:05;4.87;;;1.57;;
41661;SDS011;27351;45.992;12.666;2023-04-15T13:59:34;2.60;;;1.00;;
41661;SDS011;27351;45.992;12.666;2023-04-15T14:02:00;3.45;;;1.00;;
41661;SDS011;27351;45.992;12.666;2023-04-15T14:04:25;4.27;;;1.37;;
41661;SDS011;27351;45.992;12.666;2023-04-15T14:06:51;3.33;;;1.10;;
41661;SDS011;27351;45.992;12.666;2023-04-15T14:09:16;4.43;;;1.43;;
41661;SDS011;27351;45.992;12.666;2023-04-15T14:11:42;5.43;;;1.83;;
41661;SDS011;27351;45.992;12.666;2023-04-15T14:14:07;3.23;;;1.43;;
41661;SDS011;27351;45.992;12.666;2023-04-15T14:16:33;4.63;;;1.40;;
41661;SDS011;27351;45.992;12.666;2023-04-15T14:18:59;3.63;;;1.20;;
41661;SDS011;27351;45.992;12.666;2023-04-15T14:21:25;5.15;;;1.20;;
41661;SDS011;27351;45.992;12.666;2023-04-15T14:23:52;4.05;;;1.42;;
41661;SDS011;27351;45.992;12.666;2023-04-15T14:26:18;3.97;;;1.23;;
41661;SDS011;27351;45.992;12.666;2023-04-15T14:28:44;3.67;;;1.00;;
41661;SDS011;27351;45.992;12.666;2023-04-15T14:31:10;7.03;;;1.37;;
41661;SDS011;27351;45.992;12.666;2023-04-15T14:33:35;4.80;;;1.20;;
41661;SDS011;27351;45.992;12.666;2023-04-15T14:36:01;3.85;;;1.40;;
41661;SDS011;27351;45.992;12.666;2023-04-15T14:38:26;5.28;;;1.08;;
41661;SDS011;27351;45.992;12.666;2023-04-15T14:40:52;5.65;;;1.00;;
41661;SDS011;27351;45.992;12.666;2023-04-15T14:43:17;4.70;;;1.50;;
41661;SDS011;27351;45.992;12.666;2023-04-15T14:45:43;6.93;;;1.00;;